AirNav   ATP
 
 1014 users online  

CYTZ Toronto/City Centre Airport
Toronto, Ontario, Canada

GOING TO TORONTO?


FAA INFORMATION EFFECTIVE 13 SEPTEMBER 2018

The information below comes from the U.S. Federal Avaition Administration (FAA). The FAA is not the official source of data for facilities located outside the United States, and THESE RECORDS ARE LIKELY NOT COMPLETE OR CORRECT.

Location

FAA Identifier: CYTZ
Lat/Long: 43-37-39.0000N / 079-23-46.0000W
43-37.650000N / 079-23.766667W
43.6275000 / -79.3961111
(estimated)
Elevation: 251 ft. / 77 m (estimated)
Variation: 11W ()
Time zone: UTC -4 (UTC -5 during Standard Time)
Zip code: 14174

Airport Operations

Airport use: Open to the public
Activation date: 04/2005
Control tower: no
ARTCC: TORONTO CENTER
FSS: LONDON FIC FLIGHT SERVICE STATION
Attendance: 
Segmented circle: no

Nearby radio navigation aids

VOR radial/distance  VOR name  Freq  Var
YYZr110/10.4TORONTO VOR/DME112.1510W

Airport Services

Runway Information

Runway 8/26

Dimensions: 4000 x 150 ft. / 1219 x 46 m
Surface: asphalt
RUNWAY 8  RUNWAY 26
Traffic pattern: leftleft

Runway 6/24

Dimensions: 3000 x 150 ft. / 914 x 46 m
Surface: asphalt
RUNWAY 6  RUNWAY 24
Traffic pattern: leftleft

Runway 15/33

Dimensions: 2780 x 150 ft. / 847 x 46 m
Surface: asphalt
RUNWAY 15  RUNWAY 33
Traffic pattern: leftleft

Airport Ownership and Management from official FAA records

Ownership: Privately-owned

Instrument Procedures

There are no published instrument procedures at CYTZ.

Some nearby airports with instrument procedures:

KIAG - Niagara Falls International Airport (37 nm SE)
0G0 - North Buffalo Suburban Airport (44 nm SE)
KBUF - Buffalo Niagara International Airport (50 nm SE)
9G3 - Akron Airport (54 nm SE)
9G0 - Buffalo Airfield (55 nm SE)
 
Loc | Ops | Rwys | IFR | FBO | Links
Com | Nav | Svcs | Stats | Notes


 
Aerial photo
No photo
 
Airport distance calculator
Flying to Toronto/City Centre Airport? Find the distance to fly.

From to CYTZ

Sunrise and sunset
Times for 18-Sep-2018
 Local
(UTC-4)
 Zulu
(UTC)
Morning civil twilight06:3310:33
Sunrise07:0111:01
Sunset19:2223:22
Evening civil twilight19:5123:51

Current date and time
Zulu (UTC)  19-Sep-2018 00:25:45
Local (UTC-4)  18-Sep-2018 20:25:45
 
METAR
CYTZ 182300Z AUTO 34008KT 310V020 9SM CLR 24/16 A2984 RMK SLP104 DENSITY ALT 1400FT
CYYZ 
11nm W 
182300Z 35013G18KT 15SM FEW260 21/15 A2986 RMK CI2 SLP113 DENSITY ALT 1500FT
CYKZ 
14nm N 
182300Z 35010KT 15SM FEW260 19/15 A2987 RMK CI2 SLP117 DENSITY ALT 1300FT
TAF
CYTZ 181939Z 1820/1920 27008KT P6SM SKC TEMPO 1820/1822 5SM HZ BECMG 1822/1824 33010KT FM190600 36008KT P6SM BKN050 BKN100 FM191500 03010KT P6SM FEW020 BECMG 1916/1918 10007KT RMK FCST BASED ON AUTO OBS. NXT FCST BY 190200Z
CYYZ 
11nm W 
182039Z 1821/1924 29010KT P6SM SKC FM190800 35010KT P6SM BKN050 FM191500 36010KT P6SM FEW025 RMK NXT FCST BY 190000Z
CYKZ 
14nm N 
181738Z 1818/1906 34012KT P6SM SCT030 TEMPO 1818/1821 BKN020 BECMG 1900/1902 24006KT RMK NXT FCST BY 190000Z
NOTAMs
Click for the latest NOTAMs
NOTAMs are issued by the DoD/FAA and will open in a separate window not controlled by AirNav.

 

 
 

Would you like to see your business listed on this page?

 If your business provides an interesting product or service to pilots, flight crews, aircraft, or users of the Toronto/City Centre Airport, you should consider listing it here.  To start the listing process, click on the button below
 
Add a business
 

Other Pages about Toronto/City Centre Airport

Update a link
 
Copyright © AirNav, LLC. All rights reserved. Privacy Policy  Contact